Terminal Aerodrome Forecast
Issued by NWS

Home | Current Version | Previous Version | Text Only | Print | Product List | Glossary On
Versions: 1 2 3 4 5 6 7 8 9 10 11 12 13
000
FTUS43 KEAX 310520
TAFSTJ
TAF
KSTJ 310520Z 3106/0106 17005KT P6SM SCT250
     FM311600 18006KT P6SM VCSH BKN035
     FM312100 18005KT P6SM SHRA VCTS BKN060CB
     FM010200 30005KT P6SM SCT120 SCT200=

USA.gov is the U.S. government's official web portal to all federal, state and local government web resources and services.